Weather at Cincinnati Northern Kentucky International Airport

Public forecast

Using degrees Fahrenheit for public forecast. Weather courtesy of forecast.io.

Current aviation weather report (METAR) for Cincinnati Northern Kentucky International Airport

Retrieved 2020/10/26 11:59 UTC (52 minutes ago):

KCVG 261159Z 35006KT 3SM -DZ BR OVC006 08/07 A3010 RMK AO2 SFC VIS 4 P0000 T00830067

Aviation forecast (TAF) for Cincinnati Northern Kentucky International Airport

Retrieved 2020/10/26 12:27 UTC (24 minutes ago):

TAF KCVG 261124Z 2612/2718 36004KT 6SM BR BKN004 OVC008 TEMPO 2612/2614 3SM -RA OVC004 FM261600 33005KT P6SM OVC012 FM262100 33008KT P6SM OVC022 FM270300 36007KT P6SM VCSH OVC015